Time;durP1;ratioP1;P1;durP2;ratioP2;P2;SDS_P1;SDS_P2;PMS_P1;PMS_P2;Temp;Humidity;BMP_temperature;BMP_pressure;BME280_temperature;BME280_humidity;BME280_pressure;Samples;Min_cycle;Max_cycle;Signal;HPM_P1;HPM_P2
2022/11/22 00:00:40;;;;;;;;;;;;;;;17.08;61.44;99584.08;2343638;76;50378;-76
2022/11/22 00:03:42;;;;;;;;;;;;;;;17.09;61.41;99579.06;2318540;76;52435;-75
2022/11/22 00:06:43;;;;;;;;;;;;;;;17.07;61.40;99580.28;2347375;74;50686;-78
2022/11/22 00:09:45;;;;;;;;;;;;;;;17.05;61.54;99572.45;2347511;75;50623;-76
2022/11/22 00:12:47;;;;;;;;;;;;;;;17.04;61.47;99565.47;2341767;75;50265;-76
2022/11/22 00:16:01;;;;;;;;;;;;;;;17.05;61.46;99575.64;2316947;76;51137;-76
2022/11/22 00:19:03;;;;;;;;;;;;;;;17.02;61.50;99574.19;2339652;76;50822;-78
2022/11/22 00:22:06;;;;;;;;;;;;;;;17.01;61.42;99575.23;2337298;75;50758;-78
2022/11/22 00:25:08;;;;;;;;;;;;;;;17.00;61.34;99563.39;2329566;76;51609;-78
2022/11/22 00:28:09;;;;;;;;;;;;;;;16.98;61.52;99558.27;2315395;75;50437;-78
2022/11/22 00:31:11;;;;;;;;;;;;;;;16.97;61.52;99543.23;2317889;76;51447;-78
2022/11/22 00:34:12;;;;;;;;;;;;;;;16.96;61.45;99538.92;2317714;75;50751;-79
2022/11/22 00:37:14;;;;;;;;;;;;;;;16.95;61.48;99537.26;2317805;76;50119;-79
2022/11/22 00:40:16;;;;;;;;;;;;;;;16.91;61.38;99535.51;2355042;74;51384;-77
2022/11/22 00:43:17;;;;;;;;;;;;;;;16.92;61.34;99539.00;2314820;75;51439;-76
2022/11/22 00:46:19;;;;;;;;;;;;;;;16.89;61.39;99530.87;2338899;75;50424;-78
2022/11/22 00:49:20;;;;;;;;;;;;;;;16.86;61.34;99533.94;2313052;76;50149;-78
2022/11/22 00:52:22;;;;;;;;;;;;;;;16.84;61.46;99527.97;2316408;76;51246;-79
2022/11/22 00:55:23;;;;;;;;;;;;;;;16.86;61.36;99543.30;2338171;75;50418;-78
2022/11/22 00:58:25;;;;;;;;;;;;;;;16.84;61.41;99544.00;2337707;76;50756;-78
2022/11/22 01:01:27;;;;;;;;;;;;;;;16.83;61.41;99535.68;2315500;76;50068;-78
2022/11/22 01:04:28;;;;;;;;;;;;;;;16.83;61.37;99530.86;2314191;76;50101;-78
2022/11/22 01:07:30;;;;;;;;;;;;;;;16.81;61.38;99532.89;2337745;76;50793;-77
2022/11/22 01:10:31;;;;;;;;;;;;;;;16.80;61.34;99532.56;2315562;76;52533;-77
2022/11/22 01:13:33;;;;;;;;;;;;;;;16.79;61.32;99518.39;2337175;74;51562;-77
2022/11/22 01:16:34;;;;;;;;;;;;;;;16.76;61.39;99525.44;2329243;74;50133;-77
2022/11/22 01:19:36;;;;;;;;;;;;;;;16.75;61.38;99511.78;2270709;76;53428;-78
2022/11/22 01:22:38;;;;;;;;;;;;;;;16.75;61.27;99511.27;2315746;75;51542;-77
2022/11/22 01:25:41;;;;;;;;;;;;;;;16.74;61.33;99514.13;2330805;75;50644;-77
2022/11/22 01:28:42;;;;;;;;;;;;;;;16.72;61.32;99519.68;2276943;76;52421;-76
2022/11/22 01:31:44;;;;;;;;;;;;;;;16.71;61.39;99512.67;2313120;76;51606;-77
2022/11/22 01:34:46;;;;;;;;;;;;;;;16.69;61.18;99516.05;2339607;75;50299;-77
2022/11/22 01:37:47;;;;;;;;;;;;;;;16.68;61.30;99521.09;2317584;76;50766;-76
2022/11/22 01:40:49;;;;;;;;;;;;;;;16.67;61.36;99515.44;2317437;75;52629;-78
2022/11/22 01:43:50;;;;;;;;;;;;;;;16.67;61.28;99522.13;2316577;76;51433;-76
2022/11/22 01:46:54;;;;;;;;;;;;;;;16.67;61.28;99519.94;2311879;76;50623;-77
2022/11/22 01:49:57;;;;;;;;;;;;;;;16.66;61.28;99525.80;2323773;76;51431;-77
2022/11/22 01:52:59;;;;;;;;;;;;;;;16.66;61.36;99533.80;2313810;76;52417;-76
2022/11/22 01:56:01;;;;;;;;;;;;;;;16.64;61.29;99534.51;2337132;76;50790;-76
2022/11/22 01:59:04;;;;;;;;;;;;;;;16.64;61.32;99531.84;2337301;76;50367;-76
2022/11/22 02:02:06;;;;;;;;;;;;;;;16.63;61.25;99532.88;2337233;76;50495;-76
2022/11/22 02:05:09;;;;;;;;;;;;;;;16.64;61.29;99531.02;2313810;76;50998;-75
2022/11/22 02:08:30;;;;;;;;;;;;;;;16.63;61.24;99531.53;2313280;76;50799;-76
2022/11/22 02:11:32;;;;;;;;;;;;;;;16.60;61.33;99529.27;2337099;76;50709;-76
2022/11/22 02:14:33;;;;;;;;;;;;;;;16.62;61.30;99518.37;2337684;75;51413;-77
2022/11/22 02:17:35;;;;;;;;;;;;;;;16.59;61.22;99519.59;2337413;76;50673;-77
2022/11/22 02:20:37;;;;;;;;;;;;;;;16.60;61.22;99519.92;2289051;76;51742;-77
2022/11/22 02:23:57;;;;;;;;;;;;;;;16.57;61.29;99510.12;2337097;76;50495;-76
2022/11/22 02:26:58;;;;;;;;;;;;;;;16.59;61.23;99510.24;2337461;76;50482;-76
2022/11/22 02:30:00;;;;;;;;;;;;;;;16.56;61.21;99505.30;2337455;75;50318;-77
2022/11/22 02:33:01;;;;;;;;;;;;;;;16.55;61.30;99498.33;2313882;76;49586;-77
2022/11/22 02:36:03;;;;;;;;;;;;;;;16.55;61.22;99495.14;2315377;75;50428;-76
2022/11/22 02:39:05;;;;;;;;;;;;;;;16.54;61.19;99491.31;2337419;76;51490;-76
2022/11/22 02:42:06;;;;;;;;;;;;;;;16.54;61.21;99481.48;2337362;76;51472;-77
2022/11/22 02:45:08;;;;;;;;;;;;;;;16.54;61.22;99476.63;2315827;76;52648;-76
2022/11/22 02:48:13;;;;;;;;;;;;;;;16.52;61.24;99480.03;2315248;76;50757;-76
2022/11/22 02:51:15;;;;;;;;;;;;;;;16.51;61.20;99483.19;2337336;76;51657;-76
2022/11/22 02:54:17;;;;;;;;;;;;;;;16.50;61.20;99474.06;2337256;75;50795;-77
2022/11/22 02:57:19;;;;;;;;;;;;;;;16.48;61.15;99475.58;2289800;76;49669;-77
2022/11/22 03:00:20;;;;;;;;;;;;;;;16.46;61.16;99472.28;2315263;76;51448;-76
2022/11/22 03:03:22;;;;;;;;;;;;;;;16.48;61.24;99479.59;2314891;75;51532;-76
2022/11/22 03:06:23;;;;;;;;;;;;;;;16.46;61.16;99470.94;2337293;76;51508;-77
2022/11/22 03:09:25;;;;;;;;;;;;;;;16.46;61.12;99465.60;2289460;76;51027;-77
2022/11/22 03:12:27;;;;;;;;;;;;;;;16.45;61.12;99462.63;2314518;75;53467;-77
2022/11/22 03:15:28;;;;;;;;;;;;;;;16.44;61.18;99460.14;2339145;76;51520;-76
2022/11/22 03:18:32;;;;;;;;;;;;;;;16.44;61.11;99460.14;2337299;76;51512;-76
2022/11/22 03:21:33;;;;;;;;;;;;;;;16.42;61.09;99464.89;2315284;76;50978;-77
2022/11/22 03:24:35;;;;;;;;;;;;;;;16.43;61.04;99462.00;2315040;76;52610;-77
2022/11/22 03:27:36;;;;;;;;;;;;;;;16.43;61.00;99459.84;2315334;76;51421;-77
2022/11/22 03:30:41;;;;;;;;;;;;;;;16.41;60.98;99459.22;2337401;76;50413;-77
2022/11/22 03:33:43;;;;;;;;;;;;;;;16.39;60.94;99462.10;2314823;76;51935;-77
2022/11/22 03:36:44;;;;;;;;;;;;;;;16.38;61.02;99467.11;2315013;76;51620;-77
2022/11/22 03:39:46;;;;;;;;;;;;;;;16.37;61.03;99472.14;2315139;76;52292;-77
2022/11/22 03:42:47;;;;;;;;;;;;;;;16.38;60.94;99472.96;2337437;76;51462;-77
2022/11/22 03:45:49;;;;;;;;;;;;;;;16.38;60.94;99456.95;2315768;76;51053;-77
2022/11/22 03:48:50;;;;;;;;;;;;;;;16.36;60.76;99448.30;2337146;75;51615;-77
2022/11/22 03:51:52;;;;;;;;;;;;;;;16.35;60.90;99446.16;2337169;76;50432;-77
2022/11/22 03:54:54;;;;;;;;;;;;;;;16.34;60.79;99449.85;2313718;76;49635;-77
2022/11/22 03:57:58;;;;;;;;;;;;;;;16.31;60.74;99448.41;2337282;76;51578;-77
2022/11/22 04:00:58;;;;;;;;;;;;;;;16.31;60.85;99444.89;2315533;75;22365;-77
2022/11/22 04:04:00;;;;;;;;;;;;;;;16.30;60.67;99444.06;2315009;76;50689;-77
2022/11/22 04:07:02;;;;;;;;;;;;;;;16.30;60.80;99449.41;2337162;75;52331;-77
2022/11/22 04:10:04;;;;;;;;;;;;;;;16.27;60.86;99443.65;2315010;76;51061;-76
2022/11/22 04:13:05;;;;;;;;;;;;;;;16.28;60.81;99438.09;2315213;76;49751;-78
2022/11/22 04:16:07;;;;;;;;;;;;;;;16.28;60.76;99431.42;2311895;76;50739;-77
2022/11/22 04:19:08;;;;;;;;;;;;;;;16.27;60.74;99431.13;2291486;76;52638;-77
2022/11/22 04:22:10;;;;;;;;;;;;;;;16.28;60.71;99436.77;2291280;76;51773;-77
2022/11/22 04:25:14;;;;;;;;;;;;;;;16.30;60.62;99436.06;2339387;76;51510;-77
2022/11/22 04:28:16;;;;;;;;;;;;;;;16.28;60.67;99443.44;2292204;76;50142;-77
2022/11/22 04:34:37;;;;;;;;;;;;;;;16.26;60.62;99434.83;2320809;76;24471;-77
2022/11/22 04:37:39;;;;;;;;;;;;;;;16.27;60.42;99443.65;2317374;76;51408;-77
2022/11/22 04:40:40;;;;;;;;;;;;;;;16.27;60.30;99439.64;2339621;76;50428;-78
2022/11/22 04:47:01;;;;;;;;;;;;;;;16.27;60.02;99432.45;2326108;76;22477;-77
2022/11/22 04:50:03;;;;;;;;;;;;;;;16.32;59.96;99439.36;2337296;76;51540;-77
2022/11/22 04:53:05;;;;;;;;;;;;;;;16.32;59.82;99435.36;2337437;76;50829;-78
2022/11/22 04:56:06;;;;;;;;;;;;;;;16.35;59.75;99433.32;2315332;76;51688;-77
2022/11/22 04:59:08;;;;;;;;;;;;;;;16.36;59.73;99430.95;2315456;76;51845;-77
2022/11/22 05:02:09;;;;;;;;;;;;;;;16.43;59.96;99430.48;2337335;76;51555;-74
2022/11/22 05:05:11;;;;;;;;;;;;;;;16.47;60.62;99427.73;2337006;76;51467;-74
2022/11/22 05:08:13;;;;;;;;;;;;;;;16.57;60.30;99427.34;2337415;76;51307;-74
2022/11/22 05:11:14;;;;;;;;;;;;;;;16.65;60.04;99421.33;2313704;76;50152;-74
2022/11/22 05:14:16;;;;;;;;;;;;;;;16.70;59.71;99432.24;2337489;76;50669;-74
2022/11/22 05:17:17;;;;;;;;;;;;;;;16.74;59.77;99429.46;2337668;75;51544;-74
2022/11/22 05:20:19;;;;;;;;;;;;;;;16.77;59.69;99429.58;2315228;76;51533;-74
2022/11/22 05:26:39;;;;;;;;;;;;;;;16.89;59.10;99425.84;2268882;77;22450;-77
2022/11/22 05:29:40;;;;;;;;;;;;;;;16.96;59.05;99433.38;2268484;76;50679;-78
2022/11/22 05:32:42;;;;;;;;;;;;;;;16.99;58.93;99427.63;2305420;76;51644;-77
2022/11/22 05:35:43;;;;;;;;;;;;;;;17.00;58.77;99417.23;2302905;76;50876;-78
2022/11/22 05:38:45;;;;;;;;;;;;;;;17.03;58.61;99428.03;2305692;76;51562;-78
2022/11/22 05:41:54;;;;;;;;;;;;;;;17.07;58.38;99430.62;2331823;76;51592;-78
2022/11/22 05:44:50;;;;;;;;;;;;;;;17.13;58.17;99427.13;2300751;76;22416;-77
2022/11/22 05:47:51;;;;;;;;;;;;;;;17.17;58.15;99422.52;2291427;77;49622;-76
2022/11/22 05:50:53;;;;;;;;;;;;;;;17.24;57.91;99417.67;2267143;77;50887;-78
2022/11/22 05:53:54;;;;;;;;;;;;;;;17.29;57.77;99420.56;2266756;77;51539;-77
2022/11/22 05:56:56;;;;;;;;;;;;;;;17.33;57.56;99416.46;2267083;77;51516;-75
2022/11/22 05:59:57;;;;;;;;;;;;;;;17.34;58.01;99422.11;2276445;76;51455;-75
2022/11/22 06:03:00;;;;;;;;;;;;;;;17.38;58.53;99420.16;2308223;75;51519;-75
2022/11/22 06:06:02;;;;;;;;;;;;;;;17.43;58.72;99428.91;2339912;76;50314;-76
2022/11/22 06:09:04;;;;;;;;;;;;;;;17.50;58.92;99435.61;2340098;76;51686;-75
2022/11/22 06:12:05;;;;;;;;;;;;;;;17.59;58.92;99443.20;2308236;76;52560;-75
2022/11/22 06:15:07;;;;;;;;;;;;;;;17.67;58.52;99444.03;2338505;76;51593;-75
2022/11/22 06:18:09;;;;;;;;;;;;;;;17.70;58.28;99450.30;2314952;76;50350;-75
2022/11/22 06:21:11;;;;;;;;;;;;;;;17.74;58.05;99453.70;2337332;76;50373;-75
2022/11/22 06:24:13;;;;;;;;;;;;;;;17.81;57.88;99457.75;2313639;76;51026;-75
2022/11/22 06:27:14;;;;;;;;;;;;;;;17.84;57.67;99458.67;2337443;76;50455;-76
2022/11/22 06:30:16;;;;;;;;;;;;;;;17.90;57.55;99454.34;2315177;76;52046;-74
2022/11/22 06:33:18;;;;;;;;;;;;;;;17.96;57.33;99450.33;2352053;74;51546;-75
2022/11/22 06:36:23;;;;;;;;;;;;;;;18.00;57.30;99458.75;2357077;74;50666;-75
2022/11/22 06:39:25;;;;;;;;;;;;;;;18.05;57.16;99457.09;2380263;74;50813;-73
2022/11/22 06:42:26;;;;;;;;;;;;;;;18.10;57.12;99469.86;2380206;73;51546;-74
2022/11/22 06:45:28;;;;;;;;;;;;;;;18.16;56.96;99466.37;2319270;74;51538;-73
2022/11/22 06:48:30;;;;;;;;;;;;;;;18.22;56.84;99470.05;2289536;76;52475;-73
2022/11/22 06:51:31;;;;;;;;;;;;;;;18.28;56.71;99475.90;2337326;76;50777;-75
2022/11/22 06:54:33;;;;;;;;;;;;;;;18.34;56.60;99484.94;2337502;76;51541;-78
2022/11/22 06:57:34;;;;;;;;;;;;;;;18.40;56.53;99482.78;2337628;76;51568;-78
2022/11/22 07:00:36;;;;;;;;;;;;;;;18.47;56.34;99480.89;2314138;76;51567;-78
2022/11/22 07:03:38;;;;;;;;;;;;;;;18.52;56.24;99474.91;2315077;76;51535;-77
2022/11/22 07:06:39;;;;;;;;;;;;;;;18.51;56.22;99483.47;2337479;75;51555;-77
2022/11/22 07:09:41;;;;;;;;;;;;;;;18.45;56.34;99475.76;2337555;76;51556;-77
2022/11/22 07:12:42;;;;;;;;;;;;;;;18.39;56.48;99475.24;2290559;76;51144;-78
2022/11/22 07:15:46;;;;;;;;;;;;;;;18.31;56.66;99480.02;2319180;76;51623;-78
2022/11/22 07:18:48;;;;;;;;;;;;;;;18.24;56.82;99484.06;2338271;76;50792;-77
2022/11/22 07:21:49;;;;;;;;;;;;;;;18.16;57.02;99488.27;2315772;76;50711;-77
2022/11/22 07:24:51;;;;;;;;;;;;;;;18.14;57.20;99497.05;2316605;76;51700;-77
2022/11/22 07:27:52;;;;;;;;;;;;;;;18.16;57.11;99499.83;2342687;75;50742;-77
2022/11/22 07:30:56;;;;;;;;;;;;;;;18.17;57.06;99504.14;2342616;75;50727;-77
2022/11/22 07:33:57;;;;;;;;;;;;;;;18.18;57.01;99507.64;2339727;76;50756;-77
2022/11/22 07:36:59;;;;;;;;;;;;;;;18.20;57.01;99514.95;2320362;75;50103;-77
2022/11/22 07:40:00;;;;;;;;;;;;;;;18.23;56.97;99509.99;2317278;76;51508;-79
2022/11/22 07:43:02;;;;;;;;;;;;;;;18.28;56.85;99500.81;2338066;75;51596;-78
2022/11/22 07:46:05;;;;;;;;;;;;;;;18.37;56.60;99500.59;2339288;76;50659;-78
2022/11/22 07:49:06;;;;;;;;;;;;;;;18.35;56.60;99492.78;2314546;76;49672;-78
2022/11/22 07:52:08;;;;;;;;;;;;;;;18.34;56.59;99488.47;2337799;75;50389;-78
2022/11/22 07:55:10;;;;;;;;;;;;;;;18.41;56.46;99490.59;2337908;76;50767;-79
2022/11/22 07:58:12;;;;;;;;;;;;;;;18.41;56.43;99483.89;2316059;76;50697;-78
2022/11/22 08:01:15;;;;;;;;;;;;;;;18.43;56.43;99478.34;2315750;76;51060;-78
2022/11/22 08:04:17;;;;;;;;;;;;;;;18.45;56.36;99469.06;2270073;76;50876;-78
2022/11/22 08:07:18;;;;;;;;;;;;;;;18.49;56.20;99458.22;2297695;74;51536;-79
2022/11/22 08:10:20;;;;;;;;;;;;;;;18.52;56.07;99454.29;2338764;74;50489;-79
2022/11/22 08:13:21;;;;;;;;;;;;;;;18.58;55.88;99447.29;2316290;76;51018;-80
2022/11/22 08:16:23;;;;;;;;;;;;;;;18.55;55.97;99454.38;2340269;75;50710;-79
2022/11/22 08:19:25;;;;;;;;;;;;;;;18.48;56.15;99450.41;2312820;76;50404;-78
2022/11/22 08:22:26;;;;;;;;;;;;;;;18.40;56.31;99449.31;2263875;78;51516;-78
2022/11/22 08:25:28;;;;;;;;;;;;;;;18.34;56.40;99460.35;2276030;77;51120;-79
2022/11/22 08:28:29;;;;;;;;;;;;;;;18.27;56.61;99448.83;2279821;77;50351;-80
2022/11/22 08:31:31;;;;;;;;;;;;;;;18.18;56.85;99446.06;2301246;76;50524;-80
2022/11/22 08:34:32;;;;;;;;;;;;;;;18.14;57.04;99448.34;2300906;76;50383;-78
2022/11/22 08:37:34;;;;;;;;;;;;;;;18.19;57.02;99446.38;2295404;75;50124;-80
2022/11/22 08:40:36;;;;;;;;;;;;;;;18.26;56.97;99444.48;2339445;76;50442;-79
2022/11/22 08:43:37;;;;;;;;;;;;;;;18.31;56.78;99447.36;2315927;76;50147;-78
2022/11/22 08:46:39;;;;;;;;;;;;;;;18.32;56.69;99445.00;2337792;76;50243;-77
2022/11/22 08:49:40;;;;;;;;;;;;;;;18.33;56.60;99459.21;2316024;76;49602;-79
2022/11/22 08:52:42;;;;;;;;;;;;;;;18.41;56.47;99469.69;2339620;76;50341;-75
2022/11/22 08:55:43;;;;;;;;;;;;;;;18.37;56.80;99463.94;2339475;76;50293;-77
2022/11/22 08:58:45;;;;;;;;;;;;;;;18.38;56.84;99463.42;2317427;76;51244;-77
2022/11/22 09:01:47;;;;;;;;;;;;;;;18.45;56.68;99474.42;2371448;74;49652;-79
2022/11/22 09:04:48;;;;;;;;;;;;;;;18.45;56.76;99479.77;2339304;76;50367;-77
2022/11/22 09:07:50;;;;;;;;;;;;;;;18.47;56.75;99477.72;2317402;76;49669;-78
2022/11/22 09:10:52;;;;;;;;;;;;;;;18.50;56.61;99492.02;2338823;74;50325;-79
2022/11/22 09:13:54;;;;;;;;;;;;;;;18.45;56.75;99502.55;2315650;76;51215;-76
2022/11/22 09:16:56;;;;;;;;;;;;;;;18.41;56.72;99508.00;2342488;76;51509;-80
2022/11/22 09:19:57;;;;;;;;;;;;;;;18.25;54.13;99511.95;2340145;76;51529;-79
2022/11/22 09:23:00;;;;;;;;;;;;;;;18.11;54.43;99514.35;2315902;76;51609;-78
2022/11/22 09:26:02;;;;;;;;;;;;;;;18.06;54.56;99505.60;2263540;77;52777;-78
2022/11/22 09:29:04;;;;;;;;;;;;;;;18.03;54.76;99502.00;2313749;76;50372;-79
2022/11/22 09:32:07;;;;;;;;;;;;;;;18.09;54.93;99506.22;2340490;76;50384;-78
2022/11/22 09:35:09;;;;;;;;;;;;;;;18.13;55.00;99503.42;2340241;76;50663;-80
2022/11/22 09:38:10;;;;;;;;;;;;;;;18.15;55.14;99496.01;2303128;76;50130;-79
2022/11/22 09:41:13;;;;;;;;;;;;;;;18.17;55.14;99496.63;2328652;76;51439;-77
2022/11/22 09:44:23;;;;;;;;;;;;;;;18.27;55.09;99503.72;2337922;76;51648;-79
2022/11/22 09:47:38;;;;;;;;;;;;;;;18.23;55.22;99495.78;2339184;76;50528;-78
2022/11/22 09:50:59;;;;;;;;;;;;;;;18.27;55.22;99515.25;2317922;76;51095;-77
2022/11/22 09:54:03;;;;;;;;;;;;;;;18.32;55.21;99513.81;2340594;74;50916;-79
2022/11/22 09:57:04;;;;;;;;;;;;;;;18.30;55.40;99518.55;2339129;76;50385;-77
2022/11/22 10:00:07;;;;;;;;;;;;;;;18.36;55.37;99521.20;2338864;76;50394;-79
2022/11/22 10:03:19;;;;;;;;;;;;;;;18.40;55.31;99529.13;2292108;76;51067;-79
2022/11/22 10:06:22;;;;;;;;;;;;;;;18.37;55.56;99525.53;2340333;75;50814;-78
2022/11/22 10:09:41;;;;;;;;;;;;;;;18.46;55.53;99534.98;2339188;75;50688;-80
2022/11/22 10:12:57;;;;;;;;;;;;;;;18.46;55.62;99520.25;2284358;77;50801;-77
2022/11/22 10:16:00;;;;;;;;;;;;;;;18.39;55.64;99523.45;2235725;76;50190;-78
2022/11/22 10:22:34;;;;;;;;;;;;;;;18.29;55.70;99523.09;2244756;77;22367;-79
2022/11/22 10:25:38;;;;;;;;;;;;;;;18.17;55.87;99519.39;2237214;79;50811;-80
2022/11/22 10:28:48;;;;;;;;;;;;;;;18.10;55.91;99512.69;2251839;78;51379;-77
2022/11/22 10:32:00;;;;;;;;;;;;;;;18.04;55.95;99521.56;2248988;79;51561;-76
2022/11/22 10:35:05;;;;;;;;;;;;;;;18.00;56.11;99520.31;2250208;79;50404;-76
2022/11/22 10:38:25;;;;;;;;;;;;;;;18.04;56.04;99519.70;2250448;77;50619;-77
2022/11/22 10:41:45;;;;;;;;;;;;;;;18.10;56.00;99517.22;2250380;79;51737;-77
2022/11/22 10:44:56;;;;;;;;;;;;;;;18.15;55.80;99512.89;2267692;77;51461;-76
2022/11/22 10:48:05;;;;;;;;;;;;;;;18.18;55.73;99515.67;2271013;77;51684;-77
2022/11/22 10:51:15;;;;;;;;;;;;;;;18.20;55.67;99524.32;2235826;79;50876;-77
2022/11/22 10:54:18;;;;;;;;;;;;;;;18.25;55.54;99521.84;2209318;79;51427;-77
2022/11/22 10:57:24;;;;;;;;;;;;;;;18.27;55.47;99510.41;2234552;79;51515;-77
2022/11/22 11:00:26;;;;;;;;;;;;;;;18.32;55.34;99513.81;2236227;79;51752;-77
2022/11/22 11:03:29;;;;;;;;;;;;;;;18.34;55.33;99513.06;2247119;78;50251;-77
2022/11/22 11:06:42;;;;;;;;;;;;;;;18.39;55.22;99522.63;2219101;79;51472;-77
2022/11/22 11:09:48;;;;;;;;;;;;;;;18.41;55.12;99521.39;2250819;78;51577;-77
2022/11/22 11:12:54;;;;;;;;;;;;;;;18.40;55.04;99521.09;2248695;77;50717;-77
2022/11/22 11:15:59;;;;;;;;;;;;;;;18.32;55.22;99526.68;2247220;79;50748;-77
2022/11/22 11:19:11;;;;;;;;;;;;;;;18.27;55.33;99527.30;2218479;79;51052;-77
2022/11/22 11:22:14;;;;;;;;;;;;;;;18.19;55.44;99514.66;2238529;79;50390;-76
2022/11/22 11:25:32;;;;;;;;;;;;;;;18.10;55.56;99501.98;2240675;79;51505;-76
2022/11/22 11:28:34;;;;;;;;;;;;;;;18.04;55.93;99510.33;2240950;79;50333;-76
2022/11/22 11:31:42;;;;;;;;;;;;;;;17.99;56.15;99495.41;2220787;79;51825;-77
2022/11/22 11:34:45;;;;;;;;;;;;;;;17.99;56.27;99490.05;2240540;79;51658;-76
2022/11/22 11:37:47;;;;;;;;;;;;;;;18.03;56.23;99489.11;2240050;78;50339;-75
2022/11/22 11:40:48;;;;;;;;;;;;;;;18.09;56.14;99488.30;2248500;78;50334;-76
2022/11/22 11:43:52;;;;;;;;;;;;;;;18.13;56.02;99486.83;2223946;78;51087;-77
2022/11/22 11:46:53;;;;;;;;;;;;;;;18.17;55.94;99484.59;2240468;79;51627;-77
2022/11/22 11:49:55;;;;;;;;;;;;;;;18.21;55.87;99494.67;2273253;78;50679;-76
2022/11/22 11:52:58;;;;;;;;;;;;;;;18.26;55.81;99492.69;2250965;77;50789;-78
2022/11/22 11:56:18;;;;;;;;;;;;;;;18.31;55.76;99499.58;2235682;79;49721;-76
2022/11/22 11:59:21;;;;;;;;;;;;;;;18.34;55.66;99493.83;2279910;78;51464;-75
2022/11/22 12:02:23;;;;;;;;;;;;;;;18.38;55.50;99511.11;2255481;78;50727;-76
2022/11/22 12:05:29;;;;;;;;;;;;;;;18.33;55.72;99507.41;2240240;79;51592;-76
2022/11/22 12:08:31;;;;;;;;;;;;;;;18.26;55.84;99494.02;2234109;78;52459;-76
2022/11/22 12:11:40;;;;;;;;;;;;;;;18.22;55.89;99496.83;2242666;76;51451;-75
2022/11/22 12:14:42;;;;;;;;;;;;;;;18.16;56.03;99496.30;2282973;78;51427;-75
2022/11/22 12:17:51;;;;;;;;;;;;;;;18.08;56.14;99489.31;2283035;77;50470;-75
2022/11/22 12:20:58;;;;;;;;;;;;;;;18.01;56.22;99495.21;2280176;77;51366;-74
2022/11/22 12:24:01;;;;;;;;;;;;;;;17.98;56.30;99496.45;2262329;77;50329;-75
2022/11/22 12:27:02;;;;;;;;;;;;;;;17.99;56.28;99491.39;2260117;78;50299;-75
2022/11/22 12:30:05;;;;;;;;;;;;;;;18.02;56.27;99490.16;2230885;78;50457;-75
2022/11/22 12:33:06;;;;;;;;;;;;;;;18.05;56.16;99491.89;2230955;78;51581;-75
2022/11/22 12:36:16;;;;;;;;;;;;;;;18.08;56.12;99483.96;2282632;76;51561;-75
2022/11/22 12:39:22;;;;;;;;;;;;;;;18.12;56.03;99475.02;2273498;78;50824;-76
2022/11/22 12:42:31;;;;;;;;;;;;;;;18.15;55.86;99470.05;2272849;78;51526;-75
2022/11/22 12:45:38;;;;;;;;;;;;;;;18.17;55.77;99473.88;2246267;78;52416;-74
2022/11/22 12:48:53;;;;;;;;;;;;;;;18.21;55.65;99472.41;2269152;77;50823;-75
2022/11/22 12:52:12;;;;;;;;;;;;;;;18.24;55.60;99485.41;2272741;78;50736;-75
2022/11/22 12:55:18;;;;;;;;;;;;;;;18.30;55.49;99494.45;2272524;77;50047;-75
2022/11/22 12:58:33;;;;;;;;;;;;;;;18.32;55.40;99491.86;2251690;78;51252;-74
2022/11/22 13:01:43;;;;;;;;;;;;;;;18.30;55.35;99487.75;2258231;77;50282;-75
2022/11/22 13:05:01;;;;;;;;;;;;;;;18.24;55.47;99490.76;2249575;79;50816;-75
2022/11/22 13:08:10;;;;;;;;;;;;;;;18.17;55.54;99480.05;2190393;78;50452;-76
2022/11/22 13:11:13;;;;;;;;;;;;;;;18.11;55.63;99474.69;2120450;82;52442;-76
2022/11/22 13:14:15;;;;;;;;;;;;;;;18.05;55.69;99471.00;2128326;82;51574;-76
2022/11/22 13:17:17;;;;;;;;;;;;;;;17.99;55.82;99471.32;2108564;84;51050;-76
2022/11/22 13:20:19;;;;;;;;;;;;;;;17.96;55.83;99465.05;2109145;84;52287;-77
2022/11/22 13:23:23;;;;;;;;;;;;;;;17.97;55.88;99465.34;2087209;84;52504;-76
2022/11/22 13:26:38;;;;;;;;;;;;;;;18.00;55.83;99463.58;2109061;84;51494;-76
2022/11/22 13:29:40;;;;;;;;;;;;;;;18.04;55.75;99452.78;2108993;84;50163;-76
2022/11/22 13:32:41;;;;;;;;;;;;;;;18.10;55.65;99461.02;2109088;84;51505;-75
2022/11/22 13:35:43;;;;;;;;;;;;;;;18.14;55.55;99452.87;2087337;84;50300;-75
2022/11/22 13:38:44;;;;;;;;;;;;;;;18.17;55.47;99460.48;2109051;84;51707;-75
2022/11/22 13:41:53;;;;;;;;;;;;;;;18.21;55.42;99467.05;2129441;81;50628;-76
2022/11/22 13:44:57;;;;;;;;;;;;;;;18.25;55.32;99481.16;2182784;81;51673;-76
2022/11/22 13:47:58;;;;;;;;;;;;;;;18.31;55.17;99472.80;2163493;80;52815;-77
2022/11/22 13:51:00;;;;;;;;;;;;;;;18.31;55.15;99474.13;2189711;80;50549;-77
2022/11/22 13:54:09;;;;;;;;;;;;;;;18.27;55.21;99468.91;2227058;79;50119;-76
2022/11/22 13:57:24;;;;;;;;;;;;;;;18.20;55.29;99462.74;2250466;79;51458;-76
2022/11/22 14:00:28;;;;;;;;;;;;;;;18.14;55.38;99463.59;2227515;79;51769;-77
2022/11/22 14:03:34;;;;;;;;;;;;;;;18.06;55.55;99472.14;2247389;78;51660;-76
2022/11/22 14:06:35;;;;;;;;;;;;;;;18.01;55.64;99459.08;2208484;80;50456;-76
2022/11/22 14:09:40;;;;;;;;;;;;;;;17.95;55.75;99455.36;2249907;79;50741;-77
2022/11/22 14:12:46;;;;;;;;;;;;;;;17.97;55.84;99458.66;2233707;78;51085;-76
2022/11/22 14:15:49;;;;;;;;;;;;;;;18.00;55.78;99460.91;2240812;78;51563;-77
2022/11/22 14:19:07;;;;;;;;;;;;;;;18.02;55.77;99452.69;2242058;79;51552;-77
2022/11/22 14:22:14;;;;;;;;;;;;;;;18.07;55.62;99456.89;2242246;78;51277;-76
2022/11/22 14:25:23;;;;;;;;;;;;;;;18.11;55.55;99473.35;2221644;79;51768;-76
2022/11/22 14:28:43;;;;;;;;;;;;;;;18.13;55.51;99482.00;2241914;78;50910;-76
2022/11/22 14:31:46;;;;;;;;;;;;;;;18.19;55.40;99483.34;2242240;78;51583;-77
2022/11/22 14:35:05;;;;;;;;;;;;;;;18.20;55.38;99481.48;2242114;79;52595;-77
2022/11/22 14:38:08;;;;;;;;;;;;;;;18.25;55.28;99491.05;2221956;79;52424;-76
2022/11/22 14:41:27;;;;;;;;;;;;;;;18.31;55.15;99466.10;2242512;78;51601;-77
2022/11/22 14:44:30;;;;;;;;;;;;;;;18.28;55.07;99463.33;2241907;78;52574;-76
2022/11/22 14:47:33;;;;;;;;;;;;;;;18.26;55.09;99468.59;2240988;78;51553;-76
2022/11/22 14:50:41;;;;;;;;;;;;;;;18.18;55.20;99464.28;2240395;79;50309;-76
2022/11/22 14:53:47;;;;;;;;;;;;;;;18.14;55.25;99480.47;2240246;79;51590;-76
2022/11/22 14:56:49;;;;;;;;;;;;;;;18.08;55.37;99476.45;2230294;78;50224;-76
2022/11/22 14:59:52;;;;;;;;;;;;;;;18.00;55.53;99476.15;2242154;79;51566;-76
2022/11/22 15:02:55;;;;;;;;;;;;;;;17.94;55.63;99481.83;2201080;80;52685;-77
2022/11/22 15:06:04;;;;;;;;;;;;;;;17.93;55.63;99480.68;2210975;79;51542;-79
2022/11/22 15:09:07;;;;;;;;;;;;;;;17.99;55.54;99477.20;2242869;78;51582;-79
2022/11/22 15:12:17;;;;;;;;;;;;;;;18.00;55.52;99479.64;2228943;79;51441;-78
2022/11/22 15:15:26;;;;;;;;;;;;;;;18.06;55.41;99483.37;2241685;78;50492;-78
2022/11/22 15:18:35;;;;;;;;;;;;;;;18.09;55.35;99487.48;2244940;78;51034;-78
2022/11/22 15:21:37;;;;;;;;;;;;;;;18.13;55.24;99482.00;2240832;79;50559;-79
2022/11/22 15:24:39;;;;;;;;;;;;;;;18.18;55.17;99490.23;2240670;79;51583;-79
2022/11/22 15:27:49;;;;;;;;;;;;;;;18.22;55.08;99490.14;2240825;79;50831;-78
2022/11/22 15:30:48;;;;;;;;;;;;;;;18.27;55.04;99495.69;2240607;79;22348;-78
2022/11/22 15:33:50;;;;;;;;;;;;;;;18.31;54.87;99493.41;2220527;79;50701;-78
2022/11/22 15:36:53;;;;;;;;;;;;;;;18.28;54.84;99497.32;2220447;79;51567;-79
2022/11/22 15:39:55;;;;;;;;;;;;;;;18.20;54.99;99496.20;2240740;79;51561;-78
2022/11/22 15:42:57;;;;;;;;;;;;;;;18.14;55.10;99495.72;2220631;79;51049;-78
2022/11/22 15:45:59;;;;;;;;;;;;;;;18.09;55.15;99499.01;2242363;78;50704;-79
2022/11/22 15:49:00;;;;;;;;;;;;;;;18.04;55.43;99499.63;2242730;78;50338;-80
2022/11/22 15:52:02;;;;;;;;;;;;;;;17.99;55.56;99511.98;2242677;78;50318;-79
2022/11/22 15:55:05;;;;;;;;;;;;;;;17.91;56.01;99517.03;2247139;78;51777;-80
2022/11/22 15:58:08;;;;;;;;;;;;;;;17.85;56.35;99511.15;2242201;78;50810;-80
2022/11/22 16:01:11;;;;;;;;;;;;;;;17.84;56.54;99506.84;2242834;79;51615;-82
2022/11/22 16:04:20;;;;;;;;;;;;;;;17.91;56.63;99515.70;2242324;78;50799;-80
2022/11/22 16:07:29;;;;;;;;;;;;;;;17.98;56.57;99518.35;2241123;78;50491;-79
2022/11/22 16:10:41;;;;;;;;;;;;;;;18.04;56.57;99516.20;2241843;79;51270;-80